Time;durP1;ratioP1;P1;durP2;ratioP2;P2;SDS_P1;SDS_P2;PMS_P1;PMS_P2;Temp;Humidity;BMP_temperature;BMP_pressure;BME280_temperature;BME280_humidity;BME280_pressure;Samples;Min_cycle;Max_cycle;Signal;HPM_P1;HPM_P2
2022/02/19 00:00:35;;;;;;;21.80;1.70;;;;;;;6.52;77.27;98093.06;5062613;28;20029;-69
2022/02/19 00:03:01;;;;;;;14.93;1.45;;;;;;;6.48;77.05;98094.84;5064334;28;20024;-69
2022/02/19 00:05:27;;;;;;;12.00;1.70;;;;;;;6.50;76.68;98103.56;5066423;28;20048;-69
2022/02/19 00:07:52;;;;;;;16.58;1.77;;;;;;;6.44;76.94;98101.00;5063520;28;20025;-69
2022/02/19 00:10:18;;;;;;;11.35;1.67;;;;;;;6.44;76.58;98116.69;5062489;28;20076;-69
2022/02/19 00:12:43;;;;;;;9.98;1.70;;;;;;;6.36;77.21;98107.22;5062959;28;20036;-69
2022/02/19 00:15:09;;;;;;;10.55;1.80;;;;;;;6.34;76.85;98124.63;5064025;28;20020;-69
2022/02/19 00:17:34;;;;;;;11.50;1.20;;;;;;;6.32;77.05;98121.16;5063675;28;20025;-69
2022/02/19 00:20:00;;;;;;;16.25;1.67;;;;;;;6.29;77.00;98121.19;5063250;28;20020;-69
2022/02/19 00:22:26;;;;;;;18.70;2.55;;;;;;;6.19;77.02;98130.91;5063700;28;20017;-69
2022/02/19 00:24:52;;;;;;;18.30;2.00;;;;;;;6.20;77.35;98134.34;5063138;28;20024;-69
2022/02/19 00:27:17;;;;;;;7.75;2.15;;;;;;;6.16;77.42;98135.28;5063139;28;20092;-69
2022/02/19 00:29:43;;;;;;;7.78;1.55;;;;;;;6.14;77.10;98132.69;5063260;28;20012;-69
2022/02/19 00:32:08;;;;;;;19.65;1.27;;;;;;;6.14;76.94;98137.06;5063446;28;20139;-69
2022/02/19 00:34:35;;;;;;;21.73;2.13;;;;;;;6.15;76.87;98149.22;5063130;28;20024;-69
2022/02/19 00:37:01;;;;;;;11.68;1.65;;;;;;;6.12;76.57;98149.25;5062711;28;20028;-69
2022/02/19 00:39:27;;;;;;;16.63;2.25;;;;;;;6.10;76.57;98151.88;5064201;28;20198;-69
2022/02/19 00:41:53;;;;;;;4.82;1.45;;;;;;;6.01;76.65;98145.91;5063439;28;20024;-69
2022/02/19 00:44:18;;;;;;;15.52;2.72;;;;;;;6.02;76.45;98152.84;5063602;28;20017;-69
2022/02/19 00:46:44;;;;;;;11.77;1.50;;;;;;;6.00;76.35;98155.47;5063276;28;20216;-69
2022/02/19 00:49:09;;;;;;;18.70;2.00;;;;;;;5.93;76.69;98159.03;5063898;28;20024;-69
2022/02/19 00:51:35;;;;;;;9.02;1.77;;;;;;;5.93;76.73;98163.38;5064179;28;20088;-69
2022/02/19 00:54:00;;;;;;;10.73;1.02;;;;;;;5.93;76.15;98168.59;5063187;28;20025;-69
2022/02/19 00:56:26;;;;;;;21.23;1.77;;;;;;;5.90;76.54;98185.16;5062931;28;20020;-69
2022/02/19 00:58:52;;;;;;;9.52;1.85;;;;;;;5.73;77.06;98191.34;5064626;28;20075;-69
2022/02/19 01:01:17;;;;;;;20.92;2.30;;;;;;;5.74;77.07;98199.19;5065886;28;20029;-69
2022/02/19 01:03:44;;;;;;;10.35;1.52;;;;;;;5.72;77.26;98205.28;5066169;28;20039;-69
2022/02/19 01:06:10;;;;;;;31.10;2.67;;;;;;;5.70;77.22;98212.25;5066575;28;20024;-69
2022/02/19 01:08:35;;;;;;;10.48;1.45;;;;;;;5.66;77.05;98206.19;5066073;28;20416;-69
2022/02/19 01:11:00;;;;;;;15.40;1.95;;;;;;;5.62;77.19;98203.59;5066328;28;20084;-69
2022/02/19 01:13:26;;;;;;;15.40;1.70;;;;;;;5.61;77.68;98217.53;5066539;28;20021;-69
2022/02/19 01:15:51;;;;;;;18.73;1.75;;;;;;;5.64;77.72;98221.00;5066636;28;20032;-69
2022/02/19 01:18:17;;;;;;;14.45;2.17;;;;;;;5.66;76.92;98221.00;5066446;28;20024;-69
2022/02/19 01:20:45;;;;;;;12.32;1.48;;;;;;;5.62;77.53;98224.50;5066590;28;20017;-69
2022/02/19 01:23:11;;;;;;;24.80;1.70;;;;;;;5.58;77.15;98230.59;5066742;28;20052;-69
2022/02/19 01:25:36;;;;;;;12.80;1.67;;;;;;;5.59;77.17;98229.72;5066330;28;20344;-69
2022/02/19 01:28:02;;;;;;;14.32;2.00;;;;;;;5.55;77.39;98228.03;5065498;28;20021;-69
2022/02/19 01:30:28;;;;;;;18.23;2.97;;;;;;;5.53;76.99;98233.25;5066234;28;20028;-69
2022/02/19 01:32:53;;;;;;;14.95;2.45;;;;;;;5.49;77.50;98233.28;5066167;28;20075;-69
2022/02/19 01:35:19;;;;;;;10.77;1.67;;;;;;;5.55;77.00;98222.78;5066362;28;20077;-69
2022/02/19 01:37:44;;;;;;;22.05;2.67;;;;;;;5.56;76.85;98234.97;5065782;28;20041;-69
2022/02/19 01:40:10;;;;;;;13.18;2.08;;;;;;;5.58;77.04;98230.59;5065945;28;20118;-69
2022/02/19 01:42:35;;;;;;;13.23;1.58;;;;;;;5.50;77.15;98224.56;5066009;28;20037;-69
2022/02/19 01:45:01;;;;;;;24.40;2.92;;;;;;;5.46;77.61;98234.16;5065698;28;20087;-69
2022/02/19 01:47:26;;;;;;;20.92;3.05;;;;;;;5.39;77.60;98236.81;5066308;28;20232;-69
2022/02/19 01:49:53;;;;;;;16.17;1.88;;;;;;;5.44;77.46;98235.06;5065948;28;20021;-69
2022/02/19 01:52:18;;;;;;;12.65;2.13;;;;;;;5.38;77.37;98241.16;5065900;28;20075;-69
2022/02/19 01:54:46;;;;;;;11.00;1.23;;;;;;;5.32;77.90;98237.72;5066010;28;20025;-69
2022/02/19 01:57:11;;;;;;;9.23;1.77;;;;;;;5.26;77.99;98237.75;5065874;28;20023;-69
2022/02/19 01:59:39;;;;;;;20.75;1.75;;;;;;;5.27;77.50;98235.13;5065073;28;20044;-69
2022/02/19 02:02:05;;;;;;;11.70;1.50;;;;;;;5.25;77.46;98244.69;5065030;28;20100;-69
2022/02/19 02:04:30;;;;;;;11.40;1.52;;;;;;;5.31;77.37;98243.84;5065294;28;20036;-69
2022/02/19 02:06:57;;;;;;;21.98;1.73;;;;;;;5.24;78.04;98240.38;5064955;28;20380;-69
2022/02/19 02:09:23;;;;;;;17.67;1.90;;;;;;;5.20;77.75;98232.56;5064370;28;20028;-69
2022/02/19 02:11:48;;;;;;;15.15;1.63;;;;;;;5.15;78.11;98252.56;5065004;28;20029;-69
2022/02/19 02:14:14;;;;;;;13.07;1.73;;;;;;;5.13;78.55;98249.13;5064974;28;20025;-69
2022/02/19 02:16:42;;;;;;;6.78;2.35;;;;;;;5.12;77.87;98263.88;5064706;28;20028;-69
2022/02/19 02:19:09;;;;;;;14.65;1.88;;;;;;;5.09;78.32;98257.84;5064642;28;20029;-69
2022/02/19 02:21:36;;;;;;;11.13;2.70;;;;;;;5.10;78.24;98249.13;5064611;28;20020;-69
2022/02/19 02:24:02;;;;;;;25.50;2.17;;;;;;;5.09;78.34;98245.66;5064840;28;20024;-69
2022/02/19 02:26:28;;;;;;;15.35;1.80;;;;;;;5.09;78.40;98252.63;5064736;28;20316;-69
2022/02/19 02:28:54;;;;;;;5.43;0.70;;;;;;;5.03;78.24;98258.69;5064673;28;20363;-69
2022/02/19 02:31:19;;;;;;;13.93;2.40;;;;;;;4.93;79.02;98266.59;5064461;28;20012;-69
2022/02/19 02:33:49;;;;;;;13.30;1.20;;;;;;;4.90;79.45;98266.59;5064504;28;20331;-69
2022/02/19 02:36:16;;;;;;;11.05;2.00;;;;;;;4.89;78.39;98267.44;5061694;28;20239;-69
2022/02/19 02:38:41;;;;;;;19.40;2.22;;;;;;;4.86;78.58;98272.66;5064382;28;20080;-69
2022/02/19 02:41:07;;;;;;;16.90;1.75;;;;;;;4.83;78.50;98270.06;5064029;28;20059;-69
2022/02/19 02:43:32;;;;;;;7.30;2.47;;;;;;;4.81;78.94;98283.09;5064316;28;20269;-69
2022/02/19 02:45:58;;;;;;;20.10;2.10;;;;;;;4.82;79.26;98289.19;5064095;28;20027;-68
2022/02/19 02:48:24;;;;;;;12.50;1.63;;;;;;;4.79;79.10;98284.00;5064065;28;20036;-68
2022/02/19 02:50:50;;;;;;;9.20;1.92;;;;;;;4.71;79.21;98299.66;5064181;28;20017;-68
2022/02/19 02:53:15;;;;;;;12.52;1.13;;;;;;;4.66;79.72;98308.34;5064187;28;20021;-68
2022/02/19 02:55:41;;;;;;;16.73;2.05;;;;;;;4.64;79.73;98316.16;5063905;28;20021;-68
2022/02/19 02:58:06;;;;;;;16.63;2.28;;;;;;;4.61;80.03;98316.16;5063612;28;20055;-68
2022/02/19 03:00:32;;;;;;;7.75;1.02;;;;;;;4.67;79.51;98315.28;5062701;28;20021;-68
2022/02/19 03:02:57;;;;;;;22.40;1.40;;;;;;;4.60;79.82;98311.84;5064591;28;20025;-68
2022/02/19 03:05:23;;;;;;;5.95;1.08;;;;;;;4.56;80.27;98319.66;5065990;28;20025;-68
2022/02/19 03:07:48;;;;;;;6.60;1.05;;;;;;;4.62;79.78;98322.25;5064040;28;20021;-68
2022/02/19 03:10:16;;;;;;;12.23;1.52;;;;;;;4.61;79.56;98331.81;5067761;28;20041;-68
2022/02/19 03:12:46;;;;;;;8.32;1.73;;;;;;;4.58;80.31;98336.16;5064030;28;20222;-68
2022/02/19 03:15:11;;;;;;;6.97;1.02;;;;;;;4.59;79.93;98322.25;5063877;28;20020;-68
2022/02/19 03:17:38;;;;;;;9.13;1.08;;;;;;;4.69;79.90;98334.41;5064082;28;20194;-68
2022/02/19 03:20:06;;;;;;;20.92;2.55;;;;;;;4.67;79.71;98338.75;5064088;28;20086;-68
2022/02/19 03:22:32;;;;;;;3.88;1.10;;;;;;;4.69;79.73;98335.28;5061931;28;20021;-68
2022/02/19 03:24:57;;;;;;;12.85;2.38;;;;;;;4.78;79.51;98335.25;5063647;28;20037;-68
2022/02/19 03:27:23;;;;;;;7.47;0.90;;;;;;;4.72;78.66;98335.28;5063696;28;20255;-68
2022/02/19 03:29:49;;;;;;;5.68;1.05;;;;;;;4.75;78.85;98323.97;5063431;28;20044;-68
2022/02/19 03:32:14;;;;;;;9.88;1.77;;;;;;;4.66;78.82;98334.41;5063445;28;20020;-69
2022/02/19 03:34:40;;;;;;;13.57;2.00;;;;;;;4.59;79.64;98343.13;5063551;28;20024;-69
2022/02/19 03:37:05;;;;;;;10.73;1.08;;;;;;;4.56;79.45;98348.31;5063894;28;20027;-69
2022/02/19 03:39:31;;;;;;;9.65;1.50;;;;;;;4.55;78.39;98341.38;5063345;28;20080;-69
2022/02/19 03:41:56;;;;;;;3.78;1.10;;;;;;;4.50;79.20;98360.47;5063586;28;20020;-69
2022/02/19 03:44:21;;;;;;;8.35;1.33;;;;;;;4.53;78.91;98354.41;5063281;28;20021;-69
2022/02/19 03:46:47;;;;;;;10.00;0.85;;;;;;;4.53;79.60;98369.16;5062928;28;20024;-69
2022/02/19 03:49:12;;;;;;;12.48;1.77;;;;;;;4.47;79.45;98373.50;5063550;28;20021;-69
2022/02/19 03:51:38;;;;;;;15.65;1.17;;;;;;;4.52;79.39;98372.66;5062954;28;20020;-69
2022/02/19 03:54:05;;;;;;;3.85;1.30;;;;;;;4.53;79.18;98383.94;5063430;28;20088;-69
2022/02/19 03:56:31;;;;;;;14.32;2.58;;;;;;;4.49;79.70;98384.81;5063841;28;20031;-69
2022/02/19 03:58:57;;;;;;;16.65;1.63;;;;;;;4.47;80.33;98394.34;5063271;28;20044;-69
2022/02/19 04:01:22;;;;;;;12.20;1.42;;;;;;;4.50;80.75;98402.16;5063084;28;20102;-69
2022/02/19 04:03:47;;;;;;;8.93;1.60;;;;;;;4.50;80.59;98412.59;5063102;28;20363;-69
2022/02/19 04:06:13;;;;;;;5.22;0.77;;;;;;;4.55;80.07;98406.53;5063164;28;20021;-69
2022/02/19 04:08:38;;;;;;;6.82;1.17;;;;;;;4.55;80.63;98414.34;5063381;28;20201;-69
2022/02/19 04:11:04;;;;;;;8.38;0.85;;;;;;;4.47;80.81;98425.63;5063256;28;20305;-69
2022/02/19 04:13:29;;;;;;;20.73;2.60;;;;;;;4.55;81.04;98427.38;5063349;28;20021;-69
2022/02/19 04:15:55;;;;;;;16.13;1.70;;;;;;;4.65;80.83;98436.94;5063280;28;20100;-69
2022/02/19 04:18:20;;;;;;;16.85;1.35;;;;;;;4.62;80.51;98436.94;5063267;28;20024;-69
2022/02/19 04:20:46;;;;;;;13.77;0.98;;;;;;;4.69;80.12;98449.09;5063072;28;20013;-69
2022/02/19 04:23:11;;;;;;;17.05;2.05;;;;;;;4.68;79.83;98449.97;5063416;28;20216;-69
2022/02/19 04:25:37;;;;;;;23.10;1.70;;;;;;;4.73;79.83;98453.44;5063040;28;20016;-69
2022/02/19 04:28:06;;;;;;;11.82;1.25;;;;;;;4.68;79.72;98447.38;5063395;28;20021;-69
2022/02/19 04:30:33;;;;;;;24.45;1.80;;;;;;;4.66;80.09;98449.09;5062961;28;20037;-69
2022/02/19 04:32:58;;;;;;;12.40;2.20;;;;;;;4.60;79.77;98454.31;5065418;28;20028;-69
2022/02/19 04:35:25;;;;;;;7.15;0.55;;;;;;;4.55;79.94;98461.25;5066719;28;20028;-69
2022/02/19 04:37:50;;;;;;;6.35;1.73;;;;;;;4.41;80.16;98463.84;5067060;28;20240;-69
2022/02/19 04:40:16;;;;;;;4.65;1.05;;;;;;;4.53;79.93;98463.00;5066676;28;20017;-69
2022/02/19 04:42:43;;;;;;;10.98;1.50;;;;;;;4.53;80.18;98472.53;5067064;28;20021;-69
2022/02/19 04:45:09;;;;;;;17.92;1.65;;;;;;;4.50;80.22;98472.53;5066691;28;20267;-69
2022/02/19 04:47:35;;;;;;;14.23;1.73;;;;;;;4.42;80.54;98476.88;5066538;28;20321;-69
2022/02/19 04:50:01;;;;;;;15.20;2.03;;;;;;;4.53;79.94;98496.00;5067242;28;20027;-69
2022/02/19 04:52:26;;;;;;;9.02;0.63;;;;;;;4.62;79.93;98494.28;5067263;28;20024;-69
2022/02/19 04:54:52;;;;;;;9.27;1.23;;;;;;;4.49;79.67;98494.25;5067272;28;20292;-69
2022/02/19 04:57:17;;;;;;;11.88;0.93;;;;;;;4.49;80.19;98499.47;5067380;28;20084;-69
2022/02/19 04:59:43;;;;;;;16.90;2.95;;;;;;;4.53;80.54;98497.75;5067027;28;20142;-69
2022/02/19 05:02:08;;;;;;;11.95;1.73;;;;;;;4.53;80.29;98499.47;5064724;28;20262;-69
2022/02/19 05:04:34;;;;;;;6.78;1.48;;;;;;;4.57;80.66;98496.00;5066806;28;20104;-69
2022/02/19 05:06:59;;;;;;;18.17;1.13;;;;;;;4.53;80.21;98501.19;5066997;28;20094;-69
2022/02/19 05:09:25;;;;;;;13.85;1.55;;;;;;;4.53;80.18;98494.25;5066580;28;20260;-69
2022/02/19 05:11:50;;;;;;;5.95;1.00;;;;;;;4.46;80.40;98503.78;5066223;28;20021;-69
2022/02/19 05:14:16;;;;;;;14.98;1.48;;;;;;;4.37;79.84;98512.44;5066084;28;20031;-69
2022/02/19 05:16:41;;;;;;;17.67;1.48;;;;;;;4.27;80.43;98508.09;5065730;28;20017;-69
2022/02/19 05:19:06;;;;;;;7.47;1.30;;;;;;;4.16;80.50;98515.00;5066626;28;20025;-69
2022/02/19 05:21:32;;;;;;;11.32;2.05;;;;;;;4.10;81.47;98514.09;5066142;28;20025;-69
2022/02/19 05:23:57;;;;;;;4.82;1.30;;;;;;;4.12;81.65;98518.44;5065953;28;20029;-69
2022/02/19 05:26:23;;;;;;;12.45;2.00;;;;;;;4.04;81.91;98514.94;5065814;28;20020;-69
2022/02/19 05:28:48;;;;;;;13.07;1.42;;;;;;;4.00;81.59;98518.41;5065980;28;20040;-69
2022/02/19 05:31:14;;;;;;;4.65;0.98;;;;;;;3.96;81.51;98521.84;5065969;28;20024;-69
2022/02/19 05:33:39;;;;;;;14.00;2.05;;;;;;;3.92;82.30;98530.50;5065483;28;20017;-69
2022/02/19 05:36:05;;;;;;;9.98;0.90;;;;;;;3.82;82.02;98518.31;5065747;28;20021;-69
2022/02/19 05:38:30;;;;;;;10.77;1.48;;;;;;;3.83;82.77;98525.25;5065532;28;20028;-69
2022/02/19 05:40:56;;;;;;;9.18;1.65;;;;;;;3.80;82.93;98533.03;5065615;28;20016;-69
2022/02/19 05:43:22;;;;;;;7.00;0.63;;;;;;;3.71;83.14;98533.00;5065260;28;20096;-69
2022/02/19 05:45:48;;;;;;;8.40;0.98;;;;;;;3.66;83.75;98542.50;5065183;28;20021;-69
2022/02/19 05:48:14;;;;;;;10.20;1.15;;;;;;;3.59;83.51;98540.75;5065573;28;20035;-69
2022/02/19 05:50:40;;;;;;;5.15;1.73;;;;;;;3.62;83.56;98545.97;5065784;28;20013;-69
2022/02/19 05:53:06;;;;;;;3.03;1.15;;;;;;;3.66;83.88;98547.72;5065983;28;20052;-69
2022/02/19 05:55:32;;;;;;;5.63;1.08;;;;;;;3.62;83.92;98543.38;5065596;28;20023;-69
2022/02/19 05:57:58;;;;;;;1.00;0.68;;;;;;;3.65;84.04;98551.19;5065051;28;20028;-69
2022/02/19 06:00:25;;;;;;;5.47;1.58;;;;;;;3.68;83.88;98558.13;5065512;28;20017;-69
2022/02/19 06:02:50;;;;;;;5.00;0.80;;;;;;;3.77;83.73;98561.66;5064978;28;20021;-69
2022/02/19 06:05:16;;;;;;;11.15;1.50;;;;;;;3.85;83.56;98565.19;5065429;28;20130;-69
2022/02/19 06:07:41;;;;;;;17.95;1.65;;;;;;;3.88;83.30;98570.41;5064913;28;20017;-69
2022/02/19 06:10:08;;;;;;;8.27;1.48;;;;;;;3.90;83.92;98567.81;5065400;28;20039;-69
2022/02/19 06:12:34;;;;;;;12.20;1.60;;;;;;;3.93;83.43;98573.91;5065523;28;20299;-69
2022/02/19 06:14:59;;;;;;;5.20;0.82;;;;;;;3.82;83.65;98575.56;5063708;28;20043;-69
2022/02/19 06:17:25;;;;;;;7.53;1.15;;;;;;;3.82;84.16;98592.91;5065125;28;20092;-69
2022/02/19 06:19:50;;;;;;;8.57;1.40;;;;;;;3.79;83.87;98596.38;5065141;28;20021;-69
2022/02/19 06:22:16;;;;;;;13.05;1.35;;;;;;;3.81;83.72;98597.28;5065182;28;20309;-69
2022/02/19 06:24:41;;;;;;;4.35;0.98;;;;;;;3.87;83.68;98605.13;5064857;28;20017;-69
2022/02/19 06:27:07;;;;;;;10.02;1.45;;;;;;;3.79;84.00;98601.59;5064925;28;20216;-69
2022/02/19 06:29:32;;;;;;;27.95;1.40;;;;;;;3.82;84.08;98614.63;5065840;28;20243;-69
2022/02/19 06:31:58;;;;;;;16.98;1.25;;;;;;;3.83;84.42;98629.38;5064884;28;20027;-69
2022/02/19 06:34:23;;;;;;;13.05;1.95;;;;;;;3.78;84.35;98631.09;5064696;28;20023;-69
2022/02/19 06:36:48;;;;;;;17.00;1.80;;;;;;;3.83;85.35;98637.19;5065005;28;20033;-69
2022/02/19 06:39:14;;;;;;;7.15;1.38;;;;;;;3.87;84.93;98636.38;5064606;28;20217;-69
2022/02/19 06:41:39;;;;;;;13.55;1.65;;;;;;;3.92;84.68;98639.84;5064676;28;20062;-69
2022/02/19 06:44:05;;;;;;;3.92;1.05;;;;;;;3.90;84.76;98649.38;5064347;28;20027;-69
2022/02/19 06:46:30;;;;;;;9.50;1.42;;;;;;;3.88;84.92;98648.50;5064522;28;20021;-69
2022/02/19 06:48:56;;;;;;;13.40;2.15;;;;;;;3.86;85.03;98658.03;5064951;28;20017;-69
2022/02/19 06:51:22;;;;;;;8.25;1.13;;;;;;;3.84;85.37;98662.38;5064763;28;20252;-69
2022/02/19 06:53:47;;;;;;;11.13;1.38;;;;;;;3.89;85.04;98670.22;5064612;28;20013;-69
2022/02/19 06:56:13;;;;;;;11.80;1.70;;;;;;;3.90;85.26;98670.22;5064492;28;20084;-69
2022/02/19 06:58:38;;;;;;;8.63;2.10;;;;;;;3.91;84.89;98685.00;5064328;28;20108;-69
2022/02/19 07:01:04;;;;;;;11.23;1.15;;;;;;;3.95;84.36;98678.94;5061420;28;20028;-69
2022/02/19 07:03:29;;;;;;;8.00;0.70;;;;;;;4.07;84.54;98689.44;5064383;28;20021;-69
2022/02/19 07:05:54;;;;;;;17.27;1.90;;;;;;;4.08;84.30;98688.56;5067132;28;20040;-69
2022/02/19 07:08:20;;;;;;;9.93;1.40;;;;;;;4.16;85.08;98697.31;5066814;28;20263;-69
2022/02/19 07:10:47;;;;;;;14.15;1.55;;;;;;;4.21;84.33;98700.81;5070405;28;20044;-69
2022/02/19 07:13:13;;;;;;;10.50;1.30;;;;;;;4.26;84.17;98693.91;5069239;28;20260;-69
2022/02/19 07:15:39;;;;;;;2.78;1.48;;;;;;;4.34;84.47;98702.63;5068636;28;20028;-69
2022/02/19 07:18:05;;;;;;;7.47;1.00;;;;;;;4.35;84.68;98709.59;5066074;28;20016;-69
2022/02/19 07:20:34;;;;;;;3.95;0.60;;;;;;;4.41;84.42;98714.88;5066362;28;20032;-69
2022/02/19 07:23:00;;;;;;;11.25;1.23;;;;;;;4.40;84.18;98720.91;5067007;28;20025;-69
2022/02/19 07:25:25;;;;;;;14.38;2.20;;;;;;;4.38;84.28;98720.06;5069731;28;20023;-69
2022/02/19 07:27:51;;;;;;;6.20;1.40;;;;;;;4.50;84.44;98714.88;5067600;28;20017;-69
2022/02/19 07:30:19;;;;;;;6.15;0.98;;;;;;;4.54;83.75;98726.22;5066888;28;20392;-69
2022/02/19 07:32:44;;;;;;;13.95;1.15;;;;;;;4.53;83.66;98730.53;5063894;28;20043;-69
2022/02/19 07:35:10;;;;;;;8.85;1.48;;;;;;;4.65;84.00;98728.88;5062899;28;20220;-69
2022/02/19 07:37:37;;;;;;;12.57;1.13;;;;;;;4.60;83.59;98741.00;5060495;28;20021;-69
2022/02/19 07:40:04;;;;;;;5.47;0.90;;;;;;;4.78;83.30;98743.72;5062604;28;20037;-69
2022/02/19 07:42:30;;;;;;;10.68;1.63;;;;;;;4.80;82.76;98749.81;5062696;28;20297;-69
2022/02/19 07:44:56;;;;;;;19.90;2.72;;;;;;;4.78;83.06;98756.75;5062097;28;20020;-69
2022/02/19 07:47:23;;;;;;;5.50;1.25;;;;;;;4.81;83.14;98749.81;5061378;28;20048;-69
2022/02/19 07:58:18;;;;;;;6.85;0.98;;;;;;;5.07;82.84;98776.03;5061685;28;20036;-69
2022/02/19 08:00:56;;;;;;;24.33;2.03;;;;;;;5.08;82.93;98772.53;5061958;28;20066;-69
2022/02/19 08:03:24;;;;;;;9.80;1.52;;;;;;;5.04;83.33;98770.78;5059131;28;20312;-69
2022/02/19 08:05:50;;;;;;;28.20;2.65;;;;;;;5.12;82.65;98771.72;5064387;28;20021;-69
2022/02/19 08:08:16;;;;;;;13.48;2.42;;;;;;;5.16;82.82;98770.84;5061690;28;20052;-69
2022/02/19 08:10:43;;;;;;;8.95;1.17;;;;;;;5.20;83.11;98777.81;5061718;28;20220;-69
2022/02/19 08:13:09;;;;;;;8.70;1.30;;;;;;;5.23;83.33;98781.31;5062921;28;20327;-69
2022/02/19 08:15:35;;;;;;;17.73;2.00;;;;;;;5.28;82.80;98786.56;5064675;28;20029;-68
2022/02/19 08:18:02;;;;;;;8.88;1.52;;;;;;;5.32;82.51;98793.53;5060364;28;20021;-72
2022/02/19 08:20:27;;;;;;;6.95;1.15;;;;;;;5.40;82.32;98791.81;5060093;28;20024;-68
2022/02/19 08:22:53;;;;;;;7.72;1.95;;;;;;;5.45;82.32;98785.75;5066065;28;20032;-71
2022/02/19 08:25:19;;;;;;;18.67;1.95;;;;;;;5.35;82.46;98780.50;5064508;28;20084;-68
2022/02/19 08:27:44;;;;;;;7.03;1.33;;;;;;;5.40;82.79;98797.03;5064490;28;20058;-68
2022/02/19 08:30:10;;;;;;;5.53;0.90;;;;;;;5.45;82.55;98800.53;5067700;28;20017;-68
2022/02/19 08:32:36;;;;;;;8.95;2.10;;;;;;;5.49;82.76;98802.28;5062376;28;20017;-70
2022/02/19 08:35:01;;;;;;;6.72;1.20;;;;;;;5.54;82.25;98800.56;5064547;28;20212;-67
2022/02/19 08:37:27;;;;;;;15.63;2.08;;;;;;;5.61;82.20;98808.44;5061773;28;20021;-73
2022/02/19 08:39:52;;;;;;;16.27;1.92;;;;;;;5.59;81.59;98799.72;5064597;28;20020;-68
2022/02/19 08:42:18;;;;;;;5.68;0.93;;;;;;;5.63;81.72;98817.13;5063633;28;20343;-67
2022/02/19 08:44:43;;;;;;;10.02;1.70;;;;;;;5.65;81.66;98831.06;5062586;28;20281;-70
2022/02/19 08:47:09;;;;;;;3.75;0.77;;;;;;;5.69;81.56;98817.16;5064995;28;20020;-67
2022/02/19 08:49:35;;;;;;;8.43;1.40;;;;;;;5.71;82.28;98830.19;5065269;28;20033;-67
2022/02/19 08:52:01;;;;;;;8.32;1.52;;;;;;;5.75;81.25;98831.94;5062383;28;20028;-68
2022/02/19 08:54:27;;;;;;;9.68;1.27;;;;;;;5.83;81.01;98835.50;5062777;28;20008;-69
2022/02/19 08:56:53;;;;;;;16.73;1.58;;;;;;;5.84;80.29;98832.00;5064245;28;20027;-69
2022/02/19 08:59:18;;;;;;;11.23;2.30;;;;;;;6.00;80.14;98833.78;5061028;28;20350;-68
2022/02/19 09:01:44;;;;;;;8.57;1.13;;;;;;;6.05;80.19;98837.28;5074347;28;20032;-70
2022/02/19 09:04:10;;;;;;;11.88;1.60;;;;;;;5.94;81.02;98832.03;5075703;28;20028;-70
2022/02/19 09:06:36;;;;;;;8.88;2.05;;;;;;;6.08;80.09;98832.06;5063349;28;20035;-69
2022/02/19 09:09:06;;;;;;;10.25;1.33;;;;;;;6.13;79.72;98831.19;5073558;28;20020;-69
2022/02/19 09:11:32;;;;;;;6.97;1.52;;;;;;;6.29;78.98;98829.47;5070842;28;20059;-69
2022/02/19 09:13:58;;;;;;;12.35;1.55;;;;;;;6.50;79.45;98827.75;5083385;28;20197;-68
2022/02/19 09:16:26;;;;;;;9.00;2.25;;;;;;;6.75;78.06;98833.81;5064519;28;20319;-69
2022/02/19 09:18:51;;;;;;;11.65;2.42;;;;;;;6.75;77.15;98827.72;5062688;28;20208;-67
2022/02/19 09:21:17;;;;;;;11.80;1.83;;;;;;;6.89;77.92;98826.81;5066773;28;20059;-67
2022/02/19 09:23:42;;;;;;;11.07;1.50;;;;;;;7.56;75.85;98836.19;5080750;28;20055;-67
2022/02/19 09:26:07;;;;;;;12.30;1.38;;;;;;;7.54;75.48;98840.59;5081486;28;20022;-67
2022/02/19 09:28:33;;;;;;;13.40;1.83;;;;;;;7.26;74.90;98838.94;5059504;28;20021;-67
2022/02/19 09:30:58;;;;;;;10.52;1.52;;;;;;;7.30;75.55;98843.28;5066749;28;20257;-67
2022/02/19 09:33:24;;;;;;;24.83;2.00;;;;;;;7.21;76.72;98840.69;5066843;28;20086;-68
2022/02/19 09:35:49;;;;;;;6.82;1.65;;;;;;;7.13;77.51;98852.94;5066495;28;20044;-68
2022/02/19 09:38:16;;;;;;;10.88;1.42;;;;;;;7.20;76.38;98844.19;5070893;28;20021;-67
2022/02/19 09:40:42;;;;;;;10.88;1.38;;;;;;;7.32;76.52;98849.41;5066110;28;20020;-68
2022/02/19 09:43:07;;;;;;;7.40;1.65;;;;;;;7.27;77.02;98840.69;5065620;28;20032;-68
2022/02/19 09:45:33;;;;;;;9.82;2.00;;;;;;;7.22;76.07;98842.44;5064424;28;20021;-68
2022/02/19 09:48:02;;;;;;;5.00;1.13;;;;;;;7.23;76.91;98844.19;5065685;28;20024;-68
2022/02/19 09:50:28;;;;;;;16.80;2.50;;;;;;;7.23;76.75;98853.78;5065901;28;20080;-68
2022/02/19 09:52:54;;;;;;;11.65;2.50;;;;;;;7.21;76.75;98838.06;5064749;28;20062;-68
2022/02/19 09:55:22;;;;;;;12.00;1.80;;;;;;;7.37;75.41;98842.38;5064936;28;20025;-68
2022/02/19 09:57:47;;;;;;;6.57;1.60;;;;;;;7.30;76.93;98848.53;5065123;28;20033;-68
2022/02/19 10:00:13;;;;;;;8.10;1.48;;;;;;;7.05;78.12;98838.97;5064725;28;20127;-68
2022/02/19 10:02:39;;;;;;;21.40;1.33;;;;;;;7.76;75.96;98842.25;5061754;28;20062;-68
2022/02/19 10:05:14;;;;;;;15.45;1.48;;;;;;;7.53;76.16;98844.06;5066112;28;20021;-68
2022/02/19 10:07:41;;;;;;;12.73;1.48;;;;;;;7.77;76.86;98843.09;5064676;28;20025;-67
2022/02/19 10:10:07;;;;;;;13.50;1.83;;;;;;;7.54;75.57;98848.44;5063318;28;20045;-67
2022/02/19 10:12:46;;;;;;;11.27;1.73;;;;;;;7.32;77.01;98854.63;5065599;28;20033;-68
2022/02/19 10:15:11;;;;;;;9.18;2.08;;;;;;;7.36;77.36;98861.59;5066550;28;20025;-68
2022/02/19 10:17:40;;;;;;;4.57;1.42;;;;;;;7.23;76.56;98849.41;5065150;28;20080;-68
2022/02/19 10:20:08;;;;;;;6.65;1.48;;;;;;;7.12;75.91;98856.41;5065395;28;20080;-68
2022/02/19 10:22:36;;;;;;;16.08;1.55;;;;;;;7.23;76.51;98870.38;5065334;28;20212;-68
2022/02/19 10:25:16;;;;;;;9.38;1.65;;;;;;;7.60;75.03;98871.13;5065361;28;20055;-68
2022/02/19 10:27:58;;;;;;;17.20;1.75;;;;;;;7.66;73.82;98865.84;5065680;28;20028;-68
2022/02/19 10:30:26;;;;;;;9.48;1.35;;;;;;;7.72;73.38;98866.69;5064458;28;20072;-68
2022/02/19 10:32:57;;;;;;;5.78;1.33;;;;;;;7.90;73.10;98868.34;5065596;28;20344;-68
2022/02/19 10:35:38;;;;;;;6.13;1.40;;;;;;;8.36;72.36;98873.34;5065399;28;20029;-68
2022/02/19 10:38:07;;;;;;;6.13;1.20;;;;;;;8.06;74.15;98864.75;5065661;28;20064;-68
2022/02/19 10:40:43;;;;;;;9.60;2.00;;;;;;;8.60;72.12;98867.91;5065348;28;20021;-68
2022/02/19 10:43:17;;;;;;;10.50;1.48;;;;;;;8.30;72.18;98872.53;5065531;28;20021;-68
2022/02/19 10:45:55;;;;;;;20.90;2.30;;;;;;;8.45;73.13;98878.53;5055013;28;20044;-68
2022/02/19 10:48:24;;;;;;;13.40;1.27;;;;;;;8.15;72.49;98883.94;5064507;28;20031;-68
2022/02/19 10:50:50;;;;;;;5.85;1.30;;;;;;;8.11;72.39;98878.72;5065326;28;20339;-68
2022/02/19 10:53:27;;;;;;;13.13;1.55;;;;;;;8.48;71.67;98867.16;5065205;28;20021;-68
2022/02/19 10:55:54;;;;;;;16.95;2.10;;;;;;;8.90;70.69;98865.91;5065454;28;20048;-68
2022/02/19 10:58:20;;;;;;;15.98;1.67;;;;;;;9.23;70.21;98866.47;5066492;28;20040;-68
2022/02/19 11:00:46;;;;;;;16.55;1.50;;;;;;;9.77;69.02;98870.22;5075794;28;20029;-68
2022/02/19 11:03:13;;;;;;;15.13;1.25;;;;;;;9.93;67.75;98866.50;5065248;28;20079;-68
2022/02/19 11:05:40;;;;;;;10.20;1.30;;;;;;;9.70;67.68;98865.91;5065115;28;20025;-68
2022/02/19 11:08:06;;;;;;;9.85;2.05;;;;;;;9.74;67.39;98862.34;5064977;28;20355;-68
2022/02/19 11:10:33;;;;;;;8.77;1.38;;;;;;;9.53;68.12;98854.75;5065071;28;20025;-68
2022/02/19 11:13:00;;;;;;;6.68;1.45;;;;;;;9.41;69.00;98860.13;5065058;28;20312;-68
2022/02/19 11:15:27;;;;;;;10.90;1.20;;;;;;;9.45;69.56;98856.59;5064956;28;20272;-68
2022/02/19 11:17:53;;;;;;;5.63;1.38;;;;;;;9.80;69.19;98857.03;5064694;28;20043;-68
2022/02/19 11:20:24;;;;;;;11.50;1.65;;;;;;;9.70;68.14;98852.78;5064611;28;20052;-68
2022/02/19 11:22:52;;;;;;;6.60;1.58;;;;;;;9.88;69.32;98842.03;5064642;28;20085;-68
2022/02/19 11:25:19;;;;;;;15.48;1.27;;;;;;;10.03;68.17;98841.84;5064435;28;20084;-68
2022/02/19 11:27:55;;;;;;;12.13;1.80;;;;;;;10.55;67.87;98834.94;5064484;28;20071;-68
2022/02/19 11:30:22;;;;;;;7.82;1.30;;;;;;;10.77;65.14;98844.22;5064444;28;20021;-68
2022/02/19 11:32:51;;;;;;;10.35;1.70;;;;;;;10.76;64.10;98837.22;5064455;28;20240;-68
2022/02/19 11:35:30;;;;;;;5.82;1.65;;;;;;;10.94;63.96;98836.88;5064370;28;20028;-68
2022/02/19 11:37:56;;;;;;;13.85;1.58;;;;;;;10.38;64.76;98818.56;5064394;28;20028;-68
2022/02/19 11:40:23;;;;;;;9.00;1.65;;;;;;;10.56;64.60;98823.50;5064261;28;20311;-68